Have a Safe July 4th! 

Flight Track Log - Related Links

Times and Time Zones

All times are in EDT time to prevent confusion due to time zone crossing. See the DAL1979 flight status page for this flight to view local times or setup timezone preferences in your user account.

Time Position Orientation Groundspeed Altitude Reporting Facility
EDT Latitude Longitude Course Direction KTS MPH feet Rate Location/Type
Sat 11:47:32 AM 44.8660 -93.1880 122° Southeast 167 192 2,100  Level FlightAware ADS-B
Sat 11:48:02 AM 44.8540 -93.1550 117° Southeast 203 234 2,700 1,309 Climbing FlightAware ADS-B
Sat 11:48:27 AM 44.8420 -93.1220 117° Southeast 236 272 3,300 1,527 Climbing FlightAware ADS-B
Sat 11:48:57 AM 44.8230 -93.0830 124° Southeast 261 300 4,100 1,650 Climbing FlightAware ADS-B
Sat 11:49:07 AM 44.8120 -93.0740 150° Southeast 265 305 4,400 2,640 Climbing FlightAware ADS-B
Sat 11:49:22 AM 44.7950 -93.0640 157° South 264 304 5,200 2,800 Climbing FlightAware ADS-B
Sat 11:49:52 AM 44.7620 -93.0460 159° South 272 313 6,500 2,600 Climbing FlightAware ADS-B
Sat 11:50:22 AM 44.7250 -93.0290 162° South 279 321 7,800 2,618 Climbing FlightAware ADS-B
Sat 11:50:47 AM 44.6920 -93.0200 169° South 284 327 8,900 2,229 Climbing FlightAware ADS-B
Sat 11:51:32 AM 44.6330 -93.0040 169° South 303 349 10,400 1,906 Climbing FlightAware ADS-B
Sat 11:52:12 AM 44.5780 -92.9980 176° South 326 375 11,600 2,329 Climbing FlightAware ADS-B
Sat 11:52:57 AM 44.5050 -92.9860 173° South 335 386 13,700 2,571 Climbing FlightAware ADS-B
Sat 11:53:22 AM 44.4670 -92.9740 167° South 352 405 14,600 2,100 Climbing FlightAware ADS-B
Sat 11:53:37 AM 44.4460 -92.9550 147° Southeast 366 421 15,100 2,073 Climbing FlightAware ADS-B
Sat 11:54:17 AM 44.3940 -92.8920 139° Southeast 377 434 16,500 1,976 Climbing FlightAware ADS-B
Sat 11:55:02 AM 44.3350 -92.8180 138° Southeast 386 444 17,900 1,694 Climbing FlightAware ADS-B
Sat 11:55:42 AM 44.2810 -92.7510 138° Southeast 403 464 18,900 1,275 Climbing FlightAware ADS-B
Sat 11:56:22 AM 44.2240 -92.6810 139° Southeast 427 491 19,600 1,412 Climbing FlightAware ADS-B
Sat 11:57:07 AM 44.1530 -92.5950 139° Southeast 436 502 20,900 1,624 Climbing FlightAware ADS-B
Sat 11:57:47 AM 44.0930 -92.5210 138° Southeast 442 509 21,900 1,482 Climbing FlightAware ADS-B
Sat 11:58:32 AM 44.0240 -92.4370 139° Southeast 450 518 23,000 1,412 Climbing FlightAware ADS-B
Sat 11:59:12 AM 43.9610 -92.3600 139° Southeast 460 529 23,900 1,412 Climbing FlightAware ADS-B
Sat 11:59:57 AM 43.8850 -92.2690 139° Southeast 465 535 25,000 1,341 Climbing FlightAware ADS-B
Sat 12:00:37 PM 43.8250 -92.1970 139° Southeast 468 539 25,800 1,200 Climbing FlightAware ADS-B
Sat 12:01:17 PM 43.7540 -92.1120 139° Southeast 475 547 26,600 1,129 Climbing FlightAware ADS-B
Sat 12:02:02 PM 43.6810 -92.0250 139° Southeast 481 554 27,400 1,129 Climbing FlightAware ADS-B
Sat 12:02:42 PM 43.6130 -91.9430 139° Southeast 484 557 28,200 1,125 Climbing FlightAware ADS-B
Sat 12:03:22 PM 43.5460 -91.8630 139° Southeast 487 560 28,900 1,341 Climbing FlightAware ADS-B
Sat 12:04:07 PM 43.4680 -91.7700 139° Southeast 480 552 30,100 1,482 Climbing FlightAware ADS-B
Sat 12:04:47 PM 43.4000 -91.6910 140° Southeast 474 545 31,000 1,482 Climbing FlightAware ADS-B
Sat 12:05:32 PM 43.3270 -91.6050 139° Southeast 465 535 32,200 1,341 Climbing FlightAware ADS-B
Sat 12:06:12 PM 43.2610 -91.5300 140° Southeast 461 531 32,900 565 Climbing FlightAware ADS-B
Sat 12:06:57 PM 43.1810 -91.4520 145° Southeast 464 534 33,000 71 Climbing FlightAware ADS-B
Sat 12:07:37 PM 43.1110 -91.3860 145° Southeast 465 535 33,000  Level FlightAware ADS-B
Sat 12:08:17 PM 43.0400 -91.3190 145° Southeast 467 537 33,000  Level FlightAware ADS-B
Sat 12:09:02 PM 42.9600 -91.2440 146° Southeast 470 541 33,000  Level FlightAware ADS-B
Sat 12:09:42 PM 42.8890 -91.1770 145° Southeast 470 541 33,000  Level FlightAware ADS-B
Sat 12:10:27 PM 42.8100 -91.1030 145° Southeast 471 542 33,000  Level FlightAware ADS-B
Sat 12:11:07 PM 42.7390 -91.0370 146° Southeast 472 543 33,000  Level FlightAware ADS-B
Sat 12:11:47 PM 42.6650 -90.9680 146° Southeast 473 544 33,000  Level FlightAware ADS-B
Sat 12:12:32 PM 42.5850 -90.8930 145° Southeast 472 543 33,000  Level FlightAware ADS-B
Sat 12:13:12 PM 42.5110 -90.8250 146° Southeast 473 544 33,000  Level FlightAware ADS-B
Sat 12:13:52 PM 42.4400 -90.7600 146° Southeast 473 544 33,000  Level FlightAware ADS-B
Sat 12:14:37 PM 42.3630 -90.6740 140° Southeast 473 544 33,000  Level FlightAware ADS-B
Sat 12:15:17 PM 42.3060 -90.5920 133° Southeast 472 543 33,000  Level FlightAware ADS-B
Sat 12:16:02 PM 42.2340 -90.4890 133° Southeast 470 541 33,000  Level FlightAware ADS-B
Sat 12:16:42 PM 42.1740 -90.4030 133° Southeast 469 540 33,000  Level FlightAware ADS-B
Sat 12:17:22 PM 42.1170 -90.3210 133° Southeast 469 540 33,000  Level FlightAware ADS-B
Sat 12:18:07 PM 42.0500 -90.2250 133° Southeast 466 536 33,000  Level FlightAware ADS-B
Sat 12:18:47 PM 41.9900 -90.1390 133° Southeast 466 536 33,000  Level FlightAware ADS-B
Sat 12:19:32 PM 41.9250 -90.0470 134° Southeast 465 535 33,000  Level FlightAware ADS-B
Sat 12:20:12 PM 41.8650 -89.9630 134° Southeast 465 535 33,000  Level FlightAware ADS-B
Sat 12:20:57 PM 41.7980 -89.8670 133° Southeast 464 534 33,000  Level FlightAware ADS-B
Sat 12:21:37 PM 41.7390 -89.7850 134° Southeast 465 535 33,000  Level FlightAware ADS-B
Sat 12:22:17 PM 41.6790 -89.7000 133° Southeast 464 534 33,000  Level FlightAware ADS-B
Sat 12:22:57 PM 41.6200 -89.6170 134° Southeast 464 534 33,000  Level FlightAware ADS-B
Sat 12:23:42 PM 41.5530 -89.5240 134° Southeast 463 533 33,000  Level FlightAware ADS-B
Sat 12:24:22 PM 41.4950 -89.4440 134° Southeast 463 533 33,000  Level FlightAware ADS-B
Sat 12:25:07 PM 41.4260 -89.3470 133° Southeast 463 533 33,000  Level FlightAware ADS-B
Sat 12:25:47 PM 41.3670 -89.2660 134° Southeast 463 533 33,000  Level FlightAware ADS-B
Sat 12:26:27 PM 41.3080 -89.1850 134° Southeast 462 532 33,000  Level FlightAware ADS-B
Sat 12:27:12 PM 41.2420 -89.0940 134° Southeast 462 532 33,000  Level FlightAware ADS-B
Sat 12:27:52 PM 41.1810 -89.0090 134° Southeast 463 533 33,000  Level FlightAware ADS-B
Sat 12:28:37 PM 41.1140 -88.9190 135° Southeast 462 532 33,000  Level FlightAware ADS-B
Sat 12:29:17 PM 41.0540 -88.8370 134° Southeast 462 532 33,000  Level FlightAware ADS-B
Sat 12:29:57 PM 40.9960 -88.7580 134° Southeast 461 531 33,000  Level FlightAware ADS-B
Sat 12:30:42 PM 40.9270 -88.6630 134° Southeast 462 532 33,000  Level FlightAware ADS-B
Sat 12:31:22 PM 40.8690 -88.5850 135° Southeast 462 532 33,000  Level FlightAware ADS-B
Sat 12:32:02 PM 40.8110 -88.5060 134° Southeast 462 532 33,000  Level FlightAware ADS-B
Sat 12:32:47 PM 40.7410 -88.4130 135° Southeast 461 531 33,000  Level FlightAware ADS-B
Sat 12:33:42 PM 40.6590 -88.3020 134° Southeast 461 531 33,000  Level FlightAware ADS-B
Sat 12:34:22 PM 40.5990 -88.2230 135° Southeast 461 531 33,000  Level FlightAware ADS-B
Sat 12:35:07 PM 40.5290 -88.1380 137° Southeast 461 531 33,000  Level FlightAware ADS-B
Sat 12:35:47 PM 40.4640 -88.0670 140° Southeast 463 533 33,000  Level FlightAware ADS-B
Sat 12:36:32 PM 40.3900 -87.9870 141° Southeast 462 532 33,000  Level FlightAware ADS-B
Sat 12:37:12 PM 40.3240 -87.9160 141° Southeast 461 531 33,000  Level FlightAware ADS-B
Sat 12:37:52 PM 40.2580 -87.8440 140° Southeast 461 531 33,000  Level FlightAware ADS-B
Sat 12:38:37 PM 40.1830 -87.7640 141° Southeast 459 528 33,000  Level FlightAware ADS-B
Sat 12:39:22 PM 40.1060 -87.6810 140° Southeast 460 529 33,000  Level FlightAware ADS-B
Sat 12:40:02 PM 40.0430 -87.6140 141° Southeast 461 531 33,000  Level FlightAware ADS-B
Sat 12:40:42 PM 39.9750 -87.5420 141° Southeast 460 529 33,000  Level FlightAware ADS-B
Sat 12:41:22 PM 39.9080 -87.4700 140° Southeast 459 528 33,000  Level FlightAware ADS-B
Sat 12:42:07 PM 39.8360 -87.3940 141° Southeast 456 525 33,000  Level FlightAware ADS-B
Sat 12:42:52 PM 39.7610 -87.3150 141° Southeast 456 525 33,000  Level FlightAware ADS-B
Sat 12:43:32 PM 39.6960 -87.2460 141° Southeast 455 524 33,000  Level FlightAware ADS-B
Sat 12:44:12 PM 39.6290 -87.1760 141° Southeast 454 522 33,000  Level FlightAware ADS-B
Sat 12:44:52 PM 39.5640 -87.1070 141° Southeast 453 521 33,000  Level FlightAware ADS-B
Sat 12:45:37 PM 39.4930 -87.0320 141° Southeast 454 522 33,000  Level FlightAware ADS-B
Sat 12:46:17 PM 39.4270 -86.9650 142° Southeast 453 521 33,000  Level FlightAware ADS-B
Sat 12:47:02 PM 39.3490 -86.8910 144° Southeast 455 524 33,000  Level FlightAware ADS-B
Sat 12:47:42 PM 39.2800 -86.8280 145° Southeast 455 524 33,000  Level FlightAware ADS-B
Sat 12:48:22 PM 39.2110 -86.7660 145° Southeast 456 525 33,000  Level FlightAware ADS-B
Sat 12:49:07 PM 39.1380 -86.7000 145° Southeast 456 525 33,000  Level FlightAware ADS-B
Sat 12:49:47 PM 39.0670 -86.6370 145° Southeast 456 525 33,000  Level FlightAware ADS-B
Sat 12:50:32 PM 38.9850 -86.5640 145° Southeast 457 526 33,000  Level FlightAware ADS-B
Sat 12:51:12 PM 38.9150 -86.5010 145° Southeast 458 527 33,000  Level FlightAware ADS-B
Sat 12:51:52 PM 38.8510 -86.4430 145° Southeast 459 528 33,000  Level FlightAware ADS-B
Sat 12:52:37 PM 38.7710 -86.3720 145° Southeast 459 528 33,000  Level FlightAware ADS-B
Sat 12:53:22 PM 38.6890 -86.2990 145° Southeast 460 529 33,000  Level FlightAware ADS-B
Sat 12:54:02 PM 38.6230 -86.2400 145° Southeast 460 529 33,000  Level FlightAware ADS-B
Sat 12:54:42 PM 38.5490 -86.1750 146° Southeast 461 531 33,000  Level FlightAware ADS-B
Sat 12:55:27 PM 38.4720 -86.1070 145° Southeast 463 533 33,000  Level FlightAware ADS-B
Sat 12:56:07 PM 38.4000 -86.0440 146° Southeast 466 536 33,000  Level FlightAware ADS-B
Sat 12:56:52 PM 38.3200 -85.9720 145° Southeast 471 542 33,000  Level FlightAware ADS-B
Sat 12:57:32 PM 38.2630 -85.8860 130° Southeast 475 547 33,000  Level FlightAware ADS-B
Sat 12:58:17 PM 38.2060 -85.7870 126° Southeast 478 550 33,000  Level FlightAware ADS-B
Sat 12:58:57 PM 38.1480 -85.7040 132° Southeast 475 547 33,000  Level FlightAware ADS-B
Sat 12:59:37 PM 38.0760 -85.6350 143° Southeast 476 548 33,000  Level FlightAware ADS-B
Sat 01:00:22 PM 37.9910 -85.5660 147° Southeast 478 550 33,000  Level FlightAware ADS-B
Sat 01:01:02 PM 37.9160 -85.5060 148° Southeast 479 551 33,000  Level FlightAware ADS-B
Sat 01:01:42 PM 37.8410 -85.4460 148° Southeast 480 552 33,000  Level FlightAware ADS-B
Sat 01:02:27 PM 37.7580 -85.3790 147° Southeast 480 552 33,000  Level FlightAware ADS-B
Sat 01:03:07 PM 37.6830 -85.3190 148° Southeast 480 552 33,000  Level FlightAware ADS-B
Sat 01:03:52 PM 37.5970 -85.2490 147° Southeast 480 552 33,000  Level FlightAware ADS-B
Sat 01:04:32 PM 37.5220 -85.1890 148° Southeast 481 554 33,000  Level FlightAware ADS-B
Sat 01:05:17 PM 37.4400 -85.1240 148° Southeast 481 554 33,000  Level FlightAware ADS-B
Sat 01:05:56 PM 37.3618 -85.0618 148° Southeast 482 555 33,000  Level FlightAware ADS-B
Sat 01:06:26 PM 37.3045 -85.0163 148° Southeast 482 555 33,000  Level FlightAware ADS-B
Sat 01:06:56 PM 37.2479 -84.9714 148° Southeast 483 556 33,000  Level FlightAware ADS-B
Sat 01:07:27 PM 37.1895 -84.9252 148° Southeast 483 556 33,000  Level FlightAware ADS-B
Sat 01:08:04 PM 37.1205 -84.8707 148° Southeast 482 555 33,000  Level FlightAware ADS-B
Sat 01:08:34 PM 37.0638 -84.8261 148° Southeast 482 555 33,000  Level FlightAware ADS-B
Sat 01:09:05 PM 37.0055 -84.7801 148° Southeast 481 554 33,000  Level FlightAware ADS-B
Sat 01:09:36 PM 36.9456 -84.7331 148° Southeast 481 554 33,000  Level FlightAware ADS-B
Sat 01:10:09 PM 36.8841 -84.6848 148° Southeast 479 551 33,000  Level FlightAware ADS-B
Sat 01:10:40 PM 36.8251 -84.6387 148° Southeast 479 551 33,000  Level FlightAware ADS-B
Sat 01:11:11 PM 36.7675 -84.5938 148° Southeast 478 550 33,000  Level FlightAware ADS-B
Sat 01:11:42 PM 36.7100 -84.5488 148° Southeast 477 549 33,000  Level FlightAware ADS-B
Sat 01:12:12 PM 36.6530 -84.5044 148° Southeast 477 549 33,000  Level FlightAware ADS-B
Sat 01:12:42 PM 36.5961 -84.4602 148° Southeast 477 549 33,000  Level FlightAware ADS-B
Sat 01:13:13 PM 36.5397 -84.4163 148° Southeast 475 547 33,000  Level FlightAware ADS-B
Sat 01:13:43 PM 36.4837 -84.3730 148° Southeast 475 547 33,000  Level FlightAware ADS-B
Sat 01:14:13 PM 36.4272 -84.3294 148° Southeast 475 547 33,000  Level FlightAware ADS-B
Sat 01:14:43 PM 36.3708 -84.2859 148° Southeast 475 547 33,000  Level FlightAware ADS-B
Sat 01:15:14 PM 36.3136 -84.2417 148° Southeast 476 548 33,000  Level FlightAware ADS-B
Sat 01:15:44 PM 36.2570 -84.1982 148° Southeast 477 549 33,000  Level FlightAware ADS-B
Sat 01:16:14 PM 36.2000 -84.1544 148° Southeast 477 549 33,000  Level FlightAware ADS-B
Sat 01:16:45 PM 36.1415 -84.1094 148° Southeast 477 549 33,000  Level FlightAware ADS-B
Sat 01:17:16 PM 36.0836 -84.0652 148° Southeast 477 549 33,000  Level FlightAware ADS-B
Sat 01:17:48 PM 36.0239 -84.0197 148° Southeast 476 548 33,000  Level FlightAware ADS-B
Sat 01:18:22 PM 35.9607 -83.9715 148° Southeast 476 548 33,000  Level FlightAware ADS-B
Sat 01:18:49 PM 35.9093 -83.9335 149° Southeast 476 548 33,000  Level FlightAware ADS-B
Sat 01:18:57 PM 35.8923 -83.9230 153° Southeast 475 547 33,000  Level FlightAware ADS-B
Sat 01:19:10 PM 35.8672 -83.9098 157° South 475 547 33,000  Level FlightAware ADS-B
Sat 01:19:42 PM 35.7992 -83.8858 164° South 474 545 33,000  Level FlightAware ADS-B
Sat 01:20:14 PM 35.7314 -83.8664 167° South 474 545 33,000  Level FlightAware ADS-B
Sat 01:20:44 PM 35.6662 -83.8478 167° South 474 545 33,000  Level FlightAware ADS-B
Sat 01:21:14 PM 35.6021 -83.8291 167° South 475 547 33,000  Level FlightAware ADS-B
Sat 01:21:44 PM 35.5377 -83.8101 166° South 475 547 33,000  Level FlightAware ADS-B
Sat 01:22:15 PM 35.4716 -83.7903 166° South 475 547 33,000  Level FlightAware ADS-B
Sat 01:22:45 PM 35.4066 -83.7710 166° South 475 547 33,000  Level FlightAware ADS-B
Sat 01:23:16 PM 35.3419 -83.7517 166° South 474 545 33,000  Level FlightAware ADS-B
Sat 01:23:46 PM 35.2766 -83.7323 166° South 474 545 33,000  Level FlightAware ADS-B
Sat 01:24:18 PM 35.2092 -83.7123 166° South 475 547 33,000  Level FlightAware ADS-B
Sat 01:24:50 PM 35.1404 -83.6921 166° South 475 547 33,000  Level FlightAware ADS-B
Sat 01:25:29 PM 35.0562 -83.6674 166° South 475 547 33,000  Level FlightAware ADS-B
Sat 01:26:03 PM 34.9852 -83.6467 167° South 475 547 33,000  Level FlightAware ADS-B
Sat 01:26:33 PM 34.9201 -83.6276 166° South 475 547 33,000  Level FlightAware ADS-B
Sat 01:27:04 PM 34.8544 -83.6084 167° South 474 545 33,000  Level FlightAware ADS-B
Sat 01:27:34 PM 34.7897 -83.5897 167° South 475 547 33,000  Level FlightAware ADS-B
Sat 01:28:04 PM 34.7255 -83.5710 167° South 475 547 33,000  Level FlightAware ADS-B
Sat 01:28:35 PM 34.6587 -83.5518 167° South 475 547 33,000  Level FlightAware ADS-B
Sat 01:29:09 PM 34.5869 -83.5310 167° South 475 547 33,000  Level FlightAware ADS-B
Sat 01:29:40 PM 34.5200 -83.5116 167° South 476 548 33,000  Level FlightAware ADS-B
Sat 01:30:12 PM 34.4522 -83.4922 167° South 477 549 33,000  Level FlightAware ADS-B
Sat 01:30:44 PM 34.3832 -83.4725 167° South 478 550 33,000  Level FlightAware ADS-B
Sat 01:31:15 PM 34.3151 -83.4529 167° South 478 550 33,000  Level FlightAware ADS-B
Sat 01:31:48 PM 34.2434 -83.4325 167° South 479 551 33,000  Level FlightAware ADS-B
Sat 01:32:27 PM 34.1605 -83.4087 167° South 480 552 33,000  Level FlightAware ADS-B
Sat 01:32:58 PM 34.0925 -83.3894 167° South 479 551 33,000 194 Level FlightAware ADS-B
Sat 01:33:29 PM 34.0263 -83.3706 167° South 478 550 33,200 882 Climbing FlightAware ADS-B
Sat 01:34:06 PM 33.9469 -83.3482 167° South 475 547 34,000 1,235 Climbing FlightAware ADS-B
Sat 01:34:37 PM 33.8850 -83.3320 168° South 465 535 34,600 1,263 Climbing FlightAware ADS-B
Sat 01:35:22 PM 33.7980 -83.3120 169° South 456 525 35,600 988 Climbing FlightAware ADS-B
Sat 01:36:02 PM 33.7060 -83.2920 170° South 458 527 36,000 300 Climbing FlightAware ADS-B
Sat 01:36:42 PM 33.6270 -83.2740 169° South 464 534 36,000  Level FlightAware ADS-B
Sat 01:37:27 PM 33.5280 -83.2510 169° South 466 536 36,000  Level FlightAware ADS-B
Sat 01:38:12 PM 33.4310 -83.2290 169° South 465 535 36,000  Level FlightAware ADS-B
Sat 01:38:52 PM 33.3520 -83.2110 169° South 465 535 36,000  Level FlightAware ADS-B
Sat 01:39:32 PM 33.2670 -83.1910 169° South 465 535 36,000  Level FlightAware ADS-B
Sat 01:40:12 PM 33.1780 -83.1710 169° South 466 536 36,000  Level FlightAware ADS-B
Sat 01:40:57 PM 33.0830 -83.1500 170° South 466 536 36,000  Level FlightAware ADS-B
Sat 01:41:27 PM 33.0260 -83.1370 169° South 466 536 36,000  Level FlightAware ADS-B
Sat 01:42:07 PM 32.9350 -83.1170 170° South 467 537 36,000  Level FlightAware ADS-B
Sat 01:42:52 PM 32.8370 -83.0950 169° South 467 537 36,000  Level FlightAware ADS-B
Sat 01:43:32 PM 32.7540 -83.0770 170° South 467 537 36,000  Level FlightAware ADS-B
Sat 01:44:12 PM 32.6730 -83.0590 169° South 467 537 36,000  Level FlightAware ADS-B
Sat 01:44:47 PM 32.5940 -83.0410 169° South 468 539 36,000  Level FlightAware ADS-B
Sat 01:45:32 PM 32.5100 -83.0220 169° South 468 539 36,000  Level FlightAware ADS-B
Sat 01:46:22 PM 32.4190 -83.0010 169° South 468 539 36,000  Level FlightAware ADS-B
Sat 01:47:02 PM 32.3470 -82.9840 169° South 468 539 36,000  Level FlightAware ADS-B
Sat 01:47:42 PM 32.2750 -82.9680 169° South 468 539 36,000  Level FlightAware ADS-B
Sat 01:48:22 PM 32.2020 -82.9510 169° South 468 539 36,000  Level FlightAware ADS-B
Sat 01:49:02 PM 32.1300 -82.9350 169° South 468 539 36,000  Level FlightAware ADS-B
Sat 01:49:52 PM 32.0400 -82.9140 169° South 468 539 36,000  Level FlightAware ADS-B
Sat 01:50:32 PM 31.9680 -82.8970 169° South 468 539 36,000  Level FlightAware ADS-B
Sat 01:51:12 PM 31.8950 -82.8810 169° South 468 539 36,000  Level FlightAware ADS-B
Sat 01:51:52 PM 31.8230 -82.8640 169° South 468 539 36,000  Level FlightAware ADS-B
Sat 01:52:32 PM 31.7510 -82.8480 169° South 468 539 36,000  Level FlightAware ADS-B
Sat 01:53:12 PM 31.6780 -82.8310 169° South 468 539 36,000  Level FlightAware ADS-B
Sat 01:54:02 PM 31.5880 -82.8110 169° South 468 539 36,000  Level FlightAware ADS-B
Sat 01:54:42 PM 31.5160 -82.7940 169° South 468 539 36,000  Level FlightAware ADS-B
Sat 01:55:15 PM 31.2875 -82.7225 169° South 469 540 36,000  Level Jacksonville Center
Sat 01:56:15 PM 31.1622 -82.6911 168° South 463 533 36,000  Level Jacksonville Center
Sat 01:57:15 PM 31.0306 -82.6719 173° South 469 540 36,000 -300 Level Jacksonville Center
Sat 01:58:15 PM 30.9011 -82.6408 168° South 469 540 35,400 -800 Descending Jacksonville Center
Sat 01:59:15 PM 30.7736 -82.6169 171° South 469 540 34,400 -700 Descending Jacksonville Center
Sat 02:00:15 PM 30.6442 -82.5858 168° South 469 540 34,000 -200 Descending Jacksonville Center
Sat 02:01:15 PM 30.5167 -82.5550 168° South 469 540 34,000  Level Jacksonville Center
Sat 02:02:16 PM 30.3994 -82.4808 151° Southeast 462 532 34,000 -300 Level Jacksonville Center
Sat 02:03:15 PM 30.2886 -82.3994 148° Southeast 468 539 33,400 -1,416 Descending Jacksonville Center
Sat 02:09:07 PM 29.5550 -82.1510 148° Southeast 445 512 24,300 -1,693 Descending FlightAware ADS-B
Sat 02:09:52 PM 29.4640 -82.1200 163° South 432 497 22,200 -2,933 Descending FlightAware ADS-B
Sat 02:10:37 PM 29.3810 -82.0760 155° Southeast 437 503 19,900 -2,800 Descending FlightAware ADS-B
Sat 02:11:07 PM 29.3250 -82.0470 156° South 432 497 18,700 -2,240 Descending FlightAware ADS-B
Sat 02:11:52 PM 29.2500 -82.0070 155° Southeast 424 488 17,100 -2,329 Descending FlightAware ADS-B
Sat 02:12:32 PM 29.1840 -81.9740 156° South 421 484 15,400 -2,800 Descending FlightAware ADS-B
Sat 02:13:22 PM 29.0850 -81.9230 156° South 411 473 12,900 -2,333 Descending FlightAware ADS-B
Sat 02:14:02 PM 29.0180 -81.8890 156° South 384 442 11,900 -900 Descending FlightAware ADS-B
Sat 02:14:42 PM 28.9670 -81.8620 155° Southeast 351 404 11,700 -776 Descending FlightAware ADS-B
Sat 02:15:27 PM 28.8910 -81.8240 156° South 323 372 10,800 -600 Descending FlightAware ADS-B
Sat 02:16:12 PM 28.8380 -81.7950 154° Southeast 323 372 10,800 -918 Level FlightAware ADS-B
Sat 02:16:52 PM 28.7900 -81.7700 155° Southeast 293 337 9,500 -1,855 Descending FlightAware ADS-B
Sat 02:17:07 PM 28.7760 -81.7500 129° Southeast 291 335 9,100 -1,200 Descending FlightAware ADS-B
Sat 02:17:22 PM 28.7690 -81.7340 117° Southeast 288 331 8,900 -300 Descending FlightAware ADS-B
Sat 02:17:47 PM 28.7590 -81.6980 108° East 288 331 8,900  Level FlightAware ADS-B
Sat 02:18:17 PM 28.7400 -81.6490 114° Southeast 290 334 8,900 -400 Level FlightAware ADS-B
Sat 02:18:47 PM 28.7240 -81.6060 113° Southeast 283 326 8,500 -1,091 Descending FlightAware ADS-B
Sat 02:19:12 PM 28.7140 -81.5700 108° East 274 315 7,900 -1,527 Descending FlightAware ADS-B
Sat 02:19:42 PM 28.7040 -81.5280 105° East 275 316 7,100 -1,091 Descending FlightAware ADS-B
Sat 02:20:07 PM 28.6960 -81.4940 105° East 258 297 6,900 -655 Descending FlightAware ADS-B
Sat 02:20:37 PM 28.6870 -81.4570 105° East 235 270 6,500 -1,200 Descending FlightAware ADS-B
Sat 02:20:52 PM 28.6830 -81.4380 103° East 232 267 6,000 -1,867 Descending FlightAware ADS-B
Sat 02:21:22 PM 28.6730 -81.4030 108° East 225 259 5,100 -1,745 Descending FlightAware ADS-B
Sat 02:21:47 PM 28.6520 -81.3890 150° Southeast 216 249 4,400 -1,527 Descending FlightAware ADS-B
Sat 02:22:17 PM 28.6200 -81.3840 172° South 226 260 3,700 -1,309 Descending FlightAware ADS-B
Sat 02:22:42 PM 28.5940 -81.3810 174° South 212 244 3,200 -1,200 Descending FlightAware ADS-B
Sat 02:23:12 PM 28.5670 -81.3770 173° South 180 207 2,600 -960 Descending FlightAware ADS-B
Sat 02:23:32 PM 28.5520 -81.3750 173° South 183 211 2,400 -300 Descending FlightAware ADS-B
Sat 02:23:52 PM 28.5350 -81.3720 171° South 178 205 2,400 -240 Level FlightAware ADS-B
Sat 02:24:22 PM 28.5100 -81.3710 178° South 148 170 2,200 -873 Descending FlightAware ADS-B
Sat 02:24:47 PM 28.4930 -81.3700 177° South 146 168 1,600 -1,440 Descending FlightAware ADS-B
Sat 02:25:12 PM 28.4750 -81.3700 180° South 147 169 1,000 -1,080 Descending FlightAware ADS-B
Sat 02:25:37 PM 28.4570 -81.3700 180° South 143 165 700 -720 Descending FlightAware ADS-B
Sat 02:26:02 PM 28.4390 -81.3700 180° South 144 166 400 -720 Descending FlightAware ADS-B
Sat 02:26:27 PM 28.4210 -81.3690 177° South 144 166 100 -720 Descending FlightAware ADS-B

Login

Don't have an account? Register now (free) for customized features, flight alerts, and more!